In Rescue
 
Open Full Screen Window  High Contrast Mode
October 25, 2021 2:10 PM CDT
Weather Information
Wind Direction
  ---
Wind Speed
  00 kt (0 mph)
Wind Gust
  00 kt (0 mph)
Altimeter
30.19 in
Visibility
10 SM
Temperature
06° C
43° F
Dewpoint
-02° C
28° F
Humidity
57%
1hr Rain Fall
00.00 in.
24hr Rain Fall
00.00 in.
Sky Condition
Clear
VFR

METAR KCKC 251910Z AUTO 00000KT 10SM CLR 06/M02 A3019 RMK AO2

FAA Disclaimer: The data displayed is for advisory purposes only and is not to be used for flight planning or operations.